sensor_id;sensor_type;location;lat;lon;timestamp;temperature;humidity
21672;DHT22;10997;52.242;8.168;2023-03-21T00:00:35;8.30;99.90
21672;DHT22;10997;52.242;8.168;2023-03-21T00:05:43;8.30;99.90
21672;DHT22;10997;52.242;8.168;2023-03-21T00:10:55;8.40;99.90
21672;DHT22;10997;52.242;8.168;2023-03-21T00:15:57;8.40;99.90
21672;DHT22;10997;52.242;8.168;2023-03-21T00:21:02;8.40;99.90
21672;DHT22;10997;52.242;8.168;2023-03-21T00:26:03;8.50;99.90
21672;DHT22;10997;52.242;8.168;2023-03-21T00:31:04;8.50;99.90
21672;DHT22;10997;52.242;8.168;2023-03-21T00:36:06;8.50;99.90
21672;DHT22;10997;52.242;8.168;2023-03-21T00:41:09;8.50;99.90
21672;DHT22;10997;52.242;8.168;2023-03-21T00:46:10;8.50;99.90
21672;DHT22;10997;52.242;8.168;2023-03-21T00:51:19;8.50;99.90
21672;DHT22;10997;52.242;8.168;2023-03-21T00:56:26;8.50;99.90
21672;DHT22;10997;52.242;8.168;2023-03-21T01:01:27;8.50;99.90
21672;DHT22;10997;52.242;8.168;2023-03-21T01:06:34;8.50;99.90
21672;DHT22;10997;52.242;8.168;2023-03-21T01:11:38;8.50;99.90
21672;DHT22;10997;52.242;8.168;2023-03-21T01:16:39;8.50;99.90
21672;DHT22;10997;52.242;8.168;2023-03-21T01:21:40;8.50;99.90
21672;DHT22;10997;52.242;8.168;2023-03-21T01:26:41;8.50;99.90
21672;DHT22;10997;52.242;8.168;2023-03-21T01:31:42;8.50;99.90
21672;DHT22;10997;52.242;8.168;2023-03-21T01:36:42;8.50;99.90
21672;DHT22;10997;52.242;8.168;2023-03-21T01:41:43;8.50;99.90
21672;DHT22;10997;52.242;8.168;2023-03-21T01:46:49;8.60;99.90
21672;DHT22;10997;52.242;8.168;2023-03-21T01:51:59;8.60;99.90
21672;DHT22;10997;52.242;8.168;2023-03-21T01:57:10;8.60;99.90
21672;DHT22;10997;52.242;8.168;2023-03-21T02:02:15;8.60;99.90
21672;DHT22;10997;52.242;8.168;2023-03-21T02:07:26;8.60;99.90
21672;DHT22;10997;52.242;8.168;2023-03-21T02:12:28;8.60;99.90
21672;DHT22;10997;52.242;8.168;2023-03-21T02:17:41;8.70;99.90
21672;DHT22;10997;52.242;8.168;2023-03-21T02:27:55;8.70;99.90
21672;DHT22;10997;52.242;8.168;2023-03-21T02:43:28;8.70;99.90
21672;DHT22;10997;52.242;8.168;2023-03-21T02:54:02;8.70;99.90
21672;DHT22;10997;52.242;8.168;2023-03-21T02:59:05;8.70;99.90
21672;DHT22;10997;52.242;8.168;2023-03-21T03:04:21;8.70;99.90
21672;DHT22;10997;52.242;8.168;2023-03-21T03:15:00;8.80;99.90
21672;DHT22;10997;52.242;8.168;2023-03-21T03:20:14;8.80;99.90
21672;DHT22;10997;52.242;8.168;2023-03-21T03:25:21;8.80;99.90
21672;DHT22;10997;52.242;8.168;2023-03-21T03:30:24;8.80;99.90
21672;DHT22;10997;52.242;8.168;2023-03-21T03:35:27;8.80;99.90
21672;DHT22;10997;52.242;8.168;2023-03-21T03:40:38;8.80;99.90
21672;DHT22;10997;52.242;8.168;2023-03-21T03:45:46;8.80;99.90
21672;DHT22;10997;52.242;8.168;2023-03-21T03:50:55;8.80;99.90
21672;DHT22;10997;52.242;8.168;2023-03-21T03:56:00;8.80;99.90
21672;DHT22;10997;52.242;8.168;2023-03-21T04:01:02;8.80;99.90
21672;DHT22;10997;52.242;8.168;2023-03-21T04:06:02;8.90;99.90
21672;DHT22;10997;52.242;8.168;2023-03-21T04:11:03;8.90;99.90
21672;DHT22;10997;52.242;8.168;2023-03-21T04:16:04;8.80;99.90
21672;DHT22;10997;52.242;8.168;2023-03-21T04:21:10;8.80;99.90
21672;DHT22;10997;52.242;8.168;2023-03-21T04:26:12;8.80;99.90
21672;DHT22;10997;52.242;8.168;2023-03-21T04:31:13;8.80;99.90
21672;DHT22;10997;52.242;8.168;2023-03-21T04:36:13;8.80;99.90
21672;DHT22;10997;52.242;8.168;2023-03-21T04:41:24;8.80;99.90
21672;DHT22;10997;52.242;8.168;2023-03-21T04:46:24;8.80;99.90
21672;DHT22;10997;52.242;8.168;2023-03-21T04:51:25;8.70;99.90
21672;DHT22;10997;52.242;8.168;2023-03-21T04:56:27;8.70;99.90
21672;DHT22;10997;52.242;8.168;2023-03-21T05:01:35;8.70;99.90
21672;DHT22;10997;52.242;8.168;2023-03-21T05:06:36;8.70;99.90
21672;DHT22;10997;52.242;8.168;2023-03-21T05:11:38;8.70;99.90
21672;DHT22;10997;52.242;8.168;2023-03-21T05:16:41;8.60;99.90
21672;DHT22;10997;52.242;8.168;2023-03-21T05:21:48;8.60;99.90
21672;DHT22;10997;52.242;8.168;2023-03-21T05:26:49;8.60;99.90
21672;DHT22;10997;52.242;8.168;2023-03-21T05:31:49;8.60;99.90
21672;DHT22;10997;52.242;8.168;2023-03-21T05:36:50;8.60;99.90
21672;DHT22;10997;52.242;8.168;2023-03-21T05:41:52;8.60;99.90
21672;DHT22;10997;52.242;8.168;2023-03-21T05:46:53;8.60;99.90
21672;DHT22;10997;52.242;8.168;2023-03-21T05:51:53;8.70;99.90
21672;DHT22;10997;52.242;8.168;2023-03-21T05:56:54;8.70;99.90
21672;DHT22;10997;52.242;8.168;2023-03-21T06:01:55;8.70;99.90
21672;DHT22;10997;52.242;8.168;2023-03-21T06:06:55;8.80;99.90
21672;DHT22;10997;52.242;8.168;2023-03-21T06:11:57;8.80;99.90
21672;DHT22;10997;52.242;8.168;2023-03-21T06:16:58;8.90;99.90
21672;DHT22;10997;52.242;8.168;2023-03-21T06:21:58;8.90;99.90
21672;DHT22;10997;52.242;8.168;2023-03-21T06:26:59;9.00;99.90
21672;DHT22;10997;52.242;8.168;2023-03-21T06:31:59;9.00;99.90
21672;DHT22;10997;52.242;8.168;2023-03-21T06:37:00;9.00;99.90
21672;DHT22;10997;52.242;8.168;2023-03-21T06:42:01;9.10;99.90
21672;DHT22;10997;52.242;8.168;2023-03-21T06:47:02;9.10;99.90
21672;DHT22;10997;52.242;8.168;2023-03-21T06:52:03;9.10;99.90
21672;DHT22;10997;52.242;8.168;2023-03-21T06:57:03;9.00;99.90
21672;DHT22;10997;52.242;8.168;2023-03-21T07:02:04;9.10;99.90
21672;DHT22;10997;52.242;8.168;2023-03-21T07:07:04;9.10;99.90
21672;DHT22;10997;52.242;8.168;2023-03-21T07:12:05;9.10;99.90
21672;DHT22;10997;52.242;8.168;2023-03-21T07:17:06;9.10;99.90
21672;DHT22;10997;52.242;8.168;2023-03-21T07:22:06;9.10;99.90
21672;DHT22;10997;52.242;8.168;2023-03-21T07:27:07;9.20;99.90
21672;DHT22;10997;52.242;8.168;2023-03-21T07:32:07;9.30;99.90
21672;DHT22;10997;52.242;8.168;2023-03-21T07:37:08;9.40;99.90
21672;DHT22;10997;52.242;8.168;2023-03-21T07:42:09;9.50;99.90
21672;DHT22;10997;52.242;8.168;2023-03-21T07:47:11;9.60;99.90
21672;DHT22;10997;52.242;8.168;2023-03-21T07:52:11;9.70;99.90
21672;DHT22;10997;52.242;8.168;2023-03-21T07:57:12;9.80;99.90
21672;DHT22;10997;52.242;8.168;2023-03-21T08:02:15;9.80;99.90
21672;DHT22;10997;52.242;8.168;2023-03-21T08:07:15;9.90;99.90
21672;DHT22;10997;52.242;8.168;2023-03-21T08:12:16;9.90;99.90
21672;DHT22;10997;52.242;8.168;2023-03-21T08:17:17;9.80;99.90
21672;DHT22;10997;52.242;8.168;2023-03-21T08:22:17;9.70;99.90
21672;DHT22;10997;52.242;8.168;2023-03-21T08:27:18;9.70;99.90
21672;DHT22;10997;52.242;8.168;2023-03-21T08:32:20;9.70;99.90
21672;DHT22;10997;52.242;8.168;2023-03-21T08:37:20;9.70;99.90
21672;DHT22;10997;52.242;8.168;2023-03-21T08:42:21;9.80;99.90
21672;DHT22;10997;52.242;8.168;2023-03-21T08:47:22;9.70;99.90
21672;DHT22;10997;52.242;8.168;2023-03-21T08:52:22;9.70;99.90
21672;DHT22;10997;52.242;8.168;2023-03-21T08:57:23;9.70;99.90
21672;DHT22;10997;52.242;8.168;2023-03-21T09:02:24;9.70;99.90
21672;DHT22;10997;52.242;8.168;2023-03-21T09:07:24;9.80;99.90
21672;DHT22;10997;52.242;8.168;2023-03-21T09:12:25;9.70;99.90
21672;DHT22;10997;52.242;8.168;2023-03-21T09:17:26;9.80;99.90
21672;DHT22;10997;52.242;8.168;2023-03-21T09:22:26;9.80;99.90
21672;DHT22;10997;52.242;8.168;2023-03-21T09:27:27;9.80;99.90
21672;DHT22;10997;52.242;8.168;2023-03-21T09:32:28;10.10;99.90
21672;DHT22;10997;52.242;8.168;2023-03-21T09:37:29;10.20;99.90
21672;DHT22;10997;52.242;8.168;2023-03-21T09:42:33;10.30;99.90
21672;DHT22;10997;52.242;8.168;2023-03-21T09:47:40;10.40;99.90
21672;DHT22;10997;52.242;8.168;2023-03-21T09:53:08;10.40;99.90
21672;DHT22;10997;52.242;8.168;2023-03-21T09:59:03;10.40;99.90
21672;DHT22;10997;52.242;8.168;2023-03-21T10:04:04;10.30;99.90
21672;DHT22;10997;52.242;8.168;2023-03-21T10:09:14;10.30;99.90
21672;DHT22;10997;52.242;8.168;2023-03-21T10:14:32;10.30;99.90
21672;DHT22;10997;52.242;8.168;2023-03-21T10:19:34;10.40;99.90
21672;DHT22;10997;52.242;8.168;2023-03-21T10:24:35;10.40;99.90
21672;DHT22;10997;52.242;8.168;2023-03-21T10:29:43;10.50;99.90
21672;DHT22;10997;52.242;8.168;2023-03-21T10:34:48;10.50;99.90
21672;DHT22;10997;52.242;8.168;2023-03-21T10:39:51;10.50;99.90
21672;DHT22;10997;52.242;8.168;2023-03-21T10:44:55;10.50;99.90
21672;DHT22;10997;52.242;8.168;2023-03-21T10:50:10;10.60;99.90
21672;DHT22;10997;52.242;8.168;2023-03-21T10:55:23;10.70;99.90
21672;DHT22;10997;52.242;8.168;2023-03-21T11:00:28;10.70;99.90
21672;DHT22;10997;52.242;8.168;2023-03-21T11:05:36;10.70;99.90
21672;DHT22;10997;52.242;8.168;2023-03-21T11:10:50;10.70;99.90
21672;DHT22;10997;52.242;8.168;2023-03-21T11:15:57;10.80;99.90
21672;DHT22;10997;52.242;8.168;2023-03-21T11:21:05;10.70;99.90
21672;DHT22;10997;52.242;8.168;2023-03-21T11:26:09;10.70;99.90
21672;DHT22;10997;52.242;8.168;2023-03-21T11:31:10;10.70;99.90
21672;DHT22;10997;52.242;8.168;2023-03-21T11:41:23;10.60;99.90
21672;DHT22;10997;52.242;8.168;2023-03-21T11:46:27;10.70;99.90
21672;DHT22;10997;52.242;8.168;2023-03-21T11:56:35;10.70;99.90
21672;DHT22;10997;52.242;8.168;2023-03-21T12:07:21;10.70;99.90
21672;DHT22;10997;52.242;8.168;2023-03-21T12:12:59;10.80;99.90
21672;DHT22;10997;52.242;8.168;2023-03-21T12:39:26;11.10;99.90
21672;DHT22;10997;52.242;8.168;2023-03-21T12:44:31;11.10;99.90
21672;DHT22;10997;52.242;8.168;2023-03-21T12:49:47;10.90;99.90
21672;DHT22;10997;52.242;8.168;2023-03-21T13:00:32;11.00;99.90
21672;DHT22;10997;52.242;8.168;2023-03-21T13:05:40;11.00;99.90
21672;DHT22;10997;52.242;8.168;2023-03-21T13:10:43;11.00;99.90
21672;DHT22;10997;52.242;8.168;2023-03-21T13:20:54;11.20;99.90
21672;DHT22;10997;52.242;8.168;2023-03-21T13:25:56;11.50;99.90
21672;DHT22;10997;52.242;8.168;2023-03-21T13:31:17;11.70;99.90
21672;DHT22;10997;52.242;8.168;2023-03-21T13:36:27;11.80;99.90
21672;DHT22;10997;52.242;8.168;2023-03-21T13:41:38;11.90;99.90
21672;DHT22;10997;52.242;8.168;2023-03-21T13:46:43;12.00;99.90
21672;DHT22;10997;52.242;8.168;2023-03-21T13:51:55;12.10;99.90
21672;DHT22;10997;52.242;8.168;2023-03-21T13:56:59;12.10;99.90
21672;DHT22;10997;52.242;8.168;2023-03-21T14:02:03;12.10;99.90
21672;DHT22;10997;52.242;8.168;2023-03-21T14:07:16;12.10;99.90
21672;DHT22;10997;52.242;8.168;2023-03-21T14:12:24;12.20;99.90
21672;DHT22;10997;52.242;8.168;2023-03-21T14:17:28;12.00;99.90
21672;DHT22;10997;52.242;8.168;2023-03-21T14:22:29;12.10;99.90
21672;DHT22;10997;52.242;8.168;2023-03-21T14:27:32;12.00;99.90
21672;DHT22;10997;52.242;8.168;2023-03-21T14:32:34;11.90;99.90
21672;DHT22;10997;52.242;8.168;2023-03-21T14:37:43;11.90;99.90
21672;DHT22;10997;52.242;8.168;2023-03-21T14:42:47;11.80;99.90
21672;DHT22;10997;52.242;8.168;2023-03-21T14:52:58;11.80;99.90
21672;DHT22;10997;52.242;8.168;2023-03-21T14:57:58;11.80;99.90
21672;DHT22;10997;52.242;8.168;2023-03-21T15:02:59;11.80;99.90
21672;DHT22;10997;52.242;8.168;2023-03-21T15:08:17;11.90;99.90
21672;DHT22;10997;52.242;8.168;2023-03-21T15:13:19;12.00;99.90
21672;DHT22;10997;52.242;8.168;2023-03-21T15:18:30;12.10;99.90
21672;DHT22;10997;52.242;8.168;2023-03-21T15:23:39;12.00;99.90
21672;DHT22;10997;52.242;8.168;2023-03-21T15:28:40;12.00;99.90
21672;DHT22;10997;52.242;8.168;2023-03-21T15:33:47;12.00;99.90
21672;DHT22;10997;52.242;8.168;2023-03-21T15:38:49;12.00;99.90
21672;DHT22;10997;52.242;8.168;2023-03-21T15:54:16;11.90;99.90
21672;DHT22;10997;52.242;8.168;2023-03-21T15:59:18;11.90;99.90
21672;DHT22;10997;52.242;8.168;2023-03-21T16:04:19;11.80;99.90
21672;DHT22;10997;52.242;8.168;2023-03-21T16:09:21;11.90;99.90
21672;DHT22;10997;52.242;8.168;2023-03-21T16:14:24;11.80;99.90
21672;DHT22;10997;52.242;8.168;2023-03-21T16:19:27;11.70;99.90
21672;DHT22;10997;52.242;8.168;2023-03-21T16:24:29;11.70;99.90
21672;DHT22;10997;52.242;8.168;2023-03-21T16:29:29;11.70;99.90
21672;DHT22;10997;52.242;8.168;2023-03-21T16:34:31;11.90;99.90
21672;DHT22;10997;52.242;8.168;2023-03-21T16:39:31;12.10;99.90
21672;DHT22;10997;52.242;8.168;2023-03-21T16:44:32;12.20;99.90
21672;DHT22;10997;52.242;8.168;2023-03-21T16:49:33;12.20;99.90
21672;DHT22;10997;52.242;8.168;2023-03-21T16:54:33;12.20;99.90
21672;DHT22;10997;52.242;8.168;2023-03-21T16:59:34;12.10;99.90
21672;DHT22;10997;52.242;8.168;2023-03-21T17:04:35;12.00;99.90
21672;DHT22;10997;52.242;8.168;2023-03-21T17:09:37;11.90;99.90
21672;DHT22;10997;52.242;8.168;2023-03-21T17:14:37;11.80;99.90
21672;DHT22;10997;52.242;8.168;2023-03-21T17:19:38;11.60;99.90
21672;DHT22;10997;52.242;8.168;2023-03-21T17:24:39;11.40;99.90
21672;DHT22;10997;52.242;8.168;2023-03-21T17:29:40;11.20;99.90
21672;DHT22;10997;52.242;8.168;2023-03-21T17:34:40;11.20;99.90
21672;DHT22;10997;52.242;8.168;2023-03-21T17:39:41;11.10;99.90
21672;DHT22;10997;52.242;8.168;2023-03-21T17:44:42;11.00;99.90
21672;DHT22;10997;52.242;8.168;2023-03-21T17:49:43;10.90;99.90
21672;DHT22;10997;52.242;8.168;2023-03-21T17:54:43;10.90;99.90
21672;DHT22;10997;52.242;8.168;2023-03-21T17:59:44;10.80;99.90
21672;DHT22;10997;52.242;8.168;2023-03-21T18:04:44;10.80;99.90
21672;DHT22;10997;52.242;8.168;2023-03-21T18:09:45;10.70;99.90
21672;DHT22;10997;52.242;8.168;2023-03-21T18:14:45;10.70;99.90
21672;DHT22;10997;52.242;8.168;2023-03-21T18:19:46;10.70;99.90
21672;DHT22;10997;52.242;8.168;2023-03-21T18:24:47;10.70;99.90
21672;DHT22;10997;52.242;8.168;2023-03-21T18:29:48;10.80;99.90
21672;DHT22;10997;52.242;8.168;2023-03-21T18:34:49;10.80;99.90
21672;DHT22;10997;52.242;8.168;2023-03-21T18:39:49;10.80;99.90
21672;DHT22;10997;52.242;8.168;2023-03-21T18:44:50;10.80;99.90
21672;DHT22;10997;52.242;8.168;2023-03-21T18:49:51;10.70;99.90
21672;DHT22;10997;52.242;8.168;2023-03-21T18:54:52;10.60;99.90
21672;DHT22;10997;52.242;8.168;2023-03-21T18:59:53;10.60;99.90
21672;DHT22;10997;52.242;8.168;2023-03-21T19:04:54;10.60;99.90
21672;DHT22;10997;52.242;8.168;2023-03-21T19:09:56;10.60;99.90
21672;DHT22;10997;52.242;8.168;2023-03-21T19:14:57;10.60;99.90
21672;DHT22;10997;52.242;8.168;2023-03-21T19:19:58;10.60;99.90
21672;DHT22;10997;52.242;8.168;2023-03-21T19:24:59;10.60;99.90
21672;DHT22;10997;52.242;8.168;2023-03-21T19:30:00;10.60;99.90
21672;DHT22;10997;52.242;8.168;2023-03-21T19:35:10;10.50;99.90
21672;DHT22;10997;52.242;8.168;2023-03-21T19:40:12;10.50;99.90
21672;DHT22;10997;52.242;8.168;2023-03-21T19:45:12;10.30;99.90
21672;DHT22;10997;52.242;8.168;2023-03-21T19:50:13;10.30;99.90
21672;DHT22;10997;52.242;8.168;2023-03-21T19:55:13;10.30;99.90
21672;DHT22;10997;52.242;8.168;2023-03-21T20:00:15;10.40;99.90
21672;DHT22;10997;52.242;8.168;2023-03-21T20:05:17;10.40;99.90
21672;DHT22;10997;52.242;8.168;2023-03-21T20:10:22;10.40;99.90
21672;DHT22;10997;52.242;8.168;2023-03-21T20:15:23;10.50;99.90
21672;DHT22;10997;52.242;8.168;2023-03-21T20:20:30;10.50;99.90
21672;DHT22;10997;52.242;8.168;2023-03-21T20:25:30;10.50;99.90
21672;DHT22;10997;52.242;8.168;2023-03-21T20:30:33;10.40;99.90
21672;DHT22;10997;52.242;8.168;2023-03-21T20:35:33;10.40;99.90
21672;DHT22;10997;52.242;8.168;2023-03-21T20:40:35;10.40;99.90
21672;DHT22;10997;52.242;8.168;2023-03-21T20:45:36;10.20;99.90
21672;DHT22;10997;52.242;8.168;2023-03-21T20:50:37;10.10;99.90
21672;DHT22;10997;52.242;8.168;2023-03-21T20:55:37;10.00;99.90
21672;DHT22;10997;52.242;8.168;2023-03-21T21:00:38;9.90;99.90
21672;DHT22;10997;52.242;8.168;2023-03-21T21:05:44;9.80;99.90
21672;DHT22;10997;52.242;8.168;2023-03-21T21:10:45;9.70;99.90
21672;DHT22;10997;52.242;8.168;2023-03-21T21:15:48;9.70;99.90
21672;DHT22;10997;52.242;8.168;2023-03-21T21:20:54;9.70;99.90
21672;DHT22;10997;52.242;8.168;2023-03-21T21:25:55;9.80;99.90
21672;DHT22;10997;52.242;8.168;2023-03-21T21:31:11;9.80;99.90
21672;DHT22;10997;52.242;8.168;2023-03-21T21:36:13;9.80;99.90
21672;DHT22;10997;52.242;8.168;2023-03-21T21:41:18;9.60;99.90
21672;DHT22;10997;52.242;8.168;2023-03-21T21:46:19;9.60;99.90
21672;DHT22;10997;52.242;8.168;2023-03-21T21:51:19;9.50;99.90
21672;DHT22;10997;52.242;8.168;2023-03-21T21:56:25;9.40;99.90
21672;DHT22;10997;52.242;8.168;2023-03-21T22:01:31;9.40;99.90
21672;DHT22;10997;52.242;8.168;2023-03-21T22:06:37;9.30;99.90
21672;DHT22;10997;52.242;8.168;2023-03-21T22:11:38;9.30;99.90
21672;DHT22;10997;52.242;8.168;2023-03-21T22:16:38;9.30;99.90
21672;DHT22;10997;52.242;8.168;2023-03-21T22:21:39;9.30;99.90
21672;DHT22;10997;52.242;8.168;2023-03-21T22:26:40;9.30;99.90
21672;DHT22;10997;52.242;8.168;2023-03-21T22:31:41;9.20;99.90
21672;DHT22;10997;52.242;8.168;2023-03-21T22:36:41;9.30;99.90
21672;DHT22;10997;52.242;8.168;2023-03-21T22:41:46;9.30;99.90
21672;DHT22;10997;52.242;8.168;2023-03-21T22:46:46;9.30;99.90
21672;DHT22;10997;52.242;8.168;2023-03-21T22:51:47;9.20;99.90
21672;DHT22;10997;52.242;8.168;2023-03-21T22:56:48;9.30;99.90
21672;DHT22;10997;52.242;8.168;2023-03-21T23:01:48;9.30;99.90
21672;DHT22;10997;52.242;8.168;2023-03-21T23:06:49;9.30;99.90
21672;DHT22;10997;52.242;8.168;2023-03-21T23:11:50;9.40;99.90
21672;DHT22;10997;52.242;8.168;2023-03-21T23:16:51;9.40;99.90
21672;DHT22;10997;52.242;8.168;2023-03-21T23:21:59;9.50;99.90
21672;DHT22;10997;52.242;8.168;2023-03-21T23:27:00;9.50;99.90
21672;DHT22;10997;52.242;8.168;2023-03-21T23:32:02;9.50;99.90
21672;DHT22;10997;52.242;8.168;2023-03-21T23:37:03;9.60;99.90
21672;DHT22;10997;52.242;8.168;2023-03-21T23:42:04;9.70;99.90
21672;DHT22;10997;52.242;8.168;2023-03-21T23:47:05;9.70;99.90
21672;DHT22;10997;52.242;8.168;2023-03-21T23:52:06;9.70;99.90
21672;DHT22;10997;52.242;8.168;2023-03-21T23:57:06;9.70;99.90
